Esmeralda Dos — EA8625 — position and weather

sailwx.info

Track history (hours):
 
Tides and Currents Weather Stations Pressure Air Temp Water Temp Dewpoint Dewpoint Depression Visibility Wind Speed Wind Dir Waves Ship Positions

Esmeralda Dos

Last reported at 2018-Jun-22 16:00 UTC. Time now 2018-Jun-22 23:01 UTC.
Position N 39°34' E 002°38'.

Length 20 m.

Type: Passenger vessel. MMSI: 224005990.

Date/timePositionNaut miles runAvg speedWind from/ knotsBaromVisibWave heightAir tempDewpointWater temp
2018-Jun-22 16:00N 39°34' E 002°38'3 5.0
2018-Jun-22 15:30N 39°32' E 002°36'3 5.9
2018-Jun-22 15:00N 39°31' E 002°33'3 5.2
2018-Jun-22 14:30N 39°28' E 002°31'3 6.2
2018-Jun-22 14:00N 39°31' E 002°33'1 1.2
2018-Jun-22 13:28N 39°32' E 002°34'2 3.3
2018-Jun-22 13:00N 39°30' E 002°32'2 4.2
2018-Jun-22 12:31N 39°28' E 002°32'3 6.4
2018-Jun-22 12:00N 39°31' E 002°33'0 0.8
2018-Jun-22 11:30N 39°31' E 002°33'1 2.1
2018-Jun-22 11:00N 39°30' E 002°32'2 3.8
2018-Jun-22 10:28N 39°28' E 002°32'3 6.7
2018-Jun-22 10:00N 39°31' E 002°33'1 1.1
2018-Jun-22 09:30N 39°32' E 002°34'2 3.2
2018-Jun-22 09:00N 39°30' E 002°32'1 1.8
2018-Jun-22 08:30N 39°30' E 002°34'5 9.4
2018-Jun-22 08:00N 39°33' E 002°38'1 0.0
2018-Jun-21 15:53N 39°34' E 002°38'2 4.7
2018-Jun-21 15:30N 39°32' E 002°37'4 7.0
2018-Jun-21 14:59N 39°31' E 002°33'3 5.7
2018-Jun-21 14:30N 39°28' E 002°31'4 5.2
2018-Jun-21 13:50N 39°32' E 002°33'0 0.6
2018-Jun-21 13:27N 39°31' E 002°33'1 2.9
2018-Jun-21 13:00N 39°30' E 002°32'2 4.3
2018-Jun-21 12:31N 39°28' E 002°31'3 5.9
2018-Jun-21 12:00N 39°31' E 002°33'0 0.7
2018-Jun-21 11:29N 39°31' E 002°33'1 2.4
2018-Jun-21 11:00N 39°30' E 002°32'2 3.3
2018-Jun-21 10:30N 39°29' E 002°32'2 4.7
2018-Jun-21 10:00N 39°31' E 002°33'1 1.5
2018-Jun-21 09:30N 39°32' E 002°33'2 2.4
2018-Jun-21 08:52N 39°30' E 002°32'0 0.3
2018-Jun-21 08:30N 39°30' E 002°32'1 1.2
2018-Jun-21 08:00N 39°31' E 002°33'5 9.3
2018-Jun-21 07:30N 39°33' E 002°38'1 2.3
2018-Jun-21 07:00N 39°34' E 002°38'0 0.5
2018-Jun-21 06:30N 39°34' E 002°38'0 0.0
2018-Jun-20 15:46N 39°34' E 002°38'1 4.7
2018-Jun-20 15:30N 39°33' E 002°38'5 9.8
2018-Jun-20 15:00N 39°31' E 002°32'2 4.3
2018-Jun-20 14:30N 39°29' E 002°32'2 3.8
2018-Jun-20 14:00N 39°30' E 002°33'1 2.6
2018-Jun-20 13:30N 39°32' E 002°33'2 3.1
2018-Jun-20 12:59N 39°30' E 002°32'2 4.3
2018-Jun-20 12:30N 39°28' E 002°31'3 5.6
2018-Jun-20 12:00N 39°31' E 002°33'1 1.6
2018-Jun-20 11:30N 39°32' E 002°33'1 3.0
2018-Jun-20 11:00N 39°30' E 002°32'2 3.7
2018-Jun-20 10:30N 39°29' E 002°32'3 4.9
2018-Jun-20 10:00N 39°31' E 002°33'1 1.7
2018-Jun-20 09:30N 39°32' E 002°34'2 3.2
2018-Jun-20 09:00N 39°30' E 002°32'0 0.3
2018-Jun-20 08:30N 39°30' E 002°32'0 0.0
2018-Jun-20 08:00N 39°30' E 002°32'4 7.7
2018-Jun-20 07:30N 39°32' E 002°37'2 4.2
2018-Jun-20 07:00N 39°34' E 002°38'0 0.0
2018-Jun-19 16:07N 39°34' E 002°38'0 0.0
2018-Jun-19 16:00N 39°34' E 002°38'3 6.1
2018-Jun-19 15:30N 39°32' E 002°35'2 4.6
2018-Jun-19 15:00N 39°31' E 002°33'3 5.5
2018-Jun-19 14:30N 39°28' E 002°32'3 5.2
2018-Jun-19 14:00N 39°31' E 002°33'1 2.4
2018-Jun-19 13:30N 39°32' E 002°34'2 3.2
2018-Jun-19 13:00N 39°30' E 002°32'2 3.9
2018-Jun-19 12:28N 39°28' E 002°32'3 6.5
2018-Jun-19 12:00N 39°31' E 002°33'1 1.7
2018-Jun-19 11:29N 39°32' E 002°34'2 3.6
2018-Jun-19 11:00N 39°30' E 002°32'2 4.0
2018-Jun-19 10:30N 39°28' E 002°32'3 6.4
2018-Jun-19 10:00N 39°31' E 002°33'0 0.7
2018-Jun-19 09:30N 39°32' E 002°34'2 3.2
2018-Jun-19 09:00N 39°30' E 002°32'1 1.1
2018-Jun-19 08:30N 39°30' E 002°33'4 7.4
2018-Jun-19 08:00N 39°32' E 002°37'2 4.7
2018-Jun-19 07:30N 39°34' E 002°38'0 0.0
2018-Jun-18 15:54N 39°34' E 002°38'2 4.6
2018-Jun-18 15:30N 39°32' E 002°37'4 7.7
2018-Jun-18 15:01N 39°31' E 002°32'3 4.8
2018-Jun-18 14:29N 39°28' E 002°31'4 7.5
2018-Jun-18 14:00N 39°32' E 002°33'0 0.5
2018-Jun-18 13:30N 39°31' E 002°33'1 2.5
2018-Jun-18 12:59N 39°30' E 002°32'3 5.8
2018-Jun-18 12:30N 39°28' E 002°32'3 6.8
2018-Jun-18 12:00N 39°31' E 002°33'1 2.0
2018-Jun-18 11:30N 39°32' E 002°34'2 3.5
2018-Jun-18 11:00N 39°30' E 002°32'3 5.2
2018-Jun-18 10:30N 39°28' E 002°32'3 6.1
2018-Jun-18 10:00N 39°31' E 002°33'1 2.1
2018-Jun-18 09:30N 39°32' E 002°34'2 3.3
2018-Jun-18 09:00N 39°30' E 002°32'1 1.4
2018-Jun-18 08:30N 39°30' E 002°32'510.4
2018-Jun-18 08:00N 39°33' E 002°38'1 0.1
2018-Jun-17 16:11N 39°34' E 002°38'0 1.6
2018-Jun-17 16:00N 39°34' E 002°38'4 7.7
2018-Jun-17 15:29N 39°31' E 002°34'2 3.1
2018-Jun-17 15:00N 39°30' E 002°32'2 3.0
2018-Jun-17 14:28N 39°29' E 002°32'3 5.4
2018-Jun-17 13:53N 39°32' E 002°33'0 0.5
2018-Jun-17 13:30N 39°31' E 002°33'1 2.7
2018-Jun-17 13:00N 39°30' E 002°32'2 4.3
2018-Jun-17 12:30N 39°28' E 002°31'3 5.2
2018-Jun-17 12:00N 39°31' E 002°33'1 2.0
2018-Jun-17 11:30N 39°32' E 002°33'2 2.9
2018-Jun-17 10:59N 39°30' E 002°32'3 6.5
2018-Jun-17 10:31N 39°32' E 002°36'3 5.3
2018-Jun-17 10:00N 39°34' E 002°38'0 0.0
2018-Jun-17 09:30N 39°34' E 002°38'4 8.4
2018-Jun-17 09:00N 39°30' E 002°40'510.6
2018-Jun-17 08:30N 39°25' E 002°43'510.7
2018-Jun-17 08:00N 39°21' E 002°46'5 9.2
2018-Jun-17 07:30N 39°18' E 002°51'12 9.9
2018-Jun-17 06:16N 39°13' E 003°05'  
2018-Jun-12 19:41N 39°22' E 002°47'210.3
2018-Jun-12 19:30N 39°23' E 002°45'7 9.8
2018-Jun-12 18:48N 39°29' E 002°41'3 9.8
2018-Jun-12 18:29N 39°32' E 002°39'2 0.8
2018-Jun-12 16:06N 39°34' E 002°38'  
Track history (hours):
 
Tides and Currents Weather Stations Pressure Air Temp Water Temp Dewpoint Dewpoint Depression Visibility Wind Speed Wind Dir Waves Ship Positions

Esmeralda Dos

Last reported at 2018-Jun-22 16:00 UTC. Time now 2018-Jun-22 23:01 UTC.
Position N 39°34' E 002°38'.

Length 20 m.

Type: Passenger vessel. MMSI: 224005990.

Date/timePositionNaut miles runAvg speedWind from/ knotsBaromVisibWave heightAir tempDewpointWater temp
2018-Jun-22 16:00N 39°34' E 002°38'3 5.0
2018-Jun-22 15:30N 39°32' E 002°36'3 5.9
2018-Jun-22 15:00N 39°31' E 002°33'3 5.2
2018-Jun-22 14:30N 39°28' E 002°31'3 6.2
2018-Jun-22 14:00N 39°31' E 002°33'1 1.2
2018-Jun-22 13:28N 39°32' E 002°34'2 3.3
2018-Jun-22 13:00N 39°30' E 002°32'2 4.2
2018-Jun-22 12:31N 39°28' E 002°32'3 6.4
2018-Jun-22 12:00N 39°31' E 002°33'0 0.8
2018-Jun-22 11:30N 39°31' E 002°33'1 2.1
2018-Jun-22 11:00N 39°30' E 002°32'2 3.8
2018-Jun-22 10:28N 39°28' E 002°32'3 6.7
2018-Jun-22 10:00N 39°31' E 002°33'1 1.1
2018-Jun-22 09:30N 39°32' E 002°34'2 3.2
2018-Jun-22 09:00N 39°30' E 002°32'1 1.8
2018-Jun-22 08:30N 39°30' E 002°34'5 9.4
2018-Jun-22 08:00N 39°33' E 002°38'1 0.0
2018-Jun-21 15:53N 39°34' E 002°38'2 4.7
2018-Jun-21 15:30N 39°32' E 002°37'4 7.0
2018-Jun-21 14:59N 39°31' E 002°33'3 5.7
2018-Jun-21 14:30N 39°28' E 002°31'4 5.2
2018-Jun-21 13:50N 39°32' E 002°33'0 0.6
2018-Jun-21 13:27N 39°31' E 002°33'1 2.9
2018-Jun-21 13:00N 39°30' E 002°32'2 4.3
2018-Jun-21 12:31N 39°28' E 002°31'3 5.9
2018-Jun-21 12:00N 39°31' E 002°33'0 0.7
2018-Jun-21 11:29N 39°31' E 002°33'1 2.4
2018-Jun-21 11:00N 39°30' E 002°32'2 3.3
2018-Jun-21 10:30N 39°29' E 002°32'2 4.7
2018-Jun-21 10:00N 39°31' E 002°33'1 1.5
2018-Jun-21 09:30N 39°32' E 002°33'2 2.4
2018-Jun-21 08:52N 39°30' E 002°32'0 0.3
2018-Jun-21 08:30N 39°30' E 002°32'1 1.2
2018-Jun-21 08:00N 39°31' E 002°33'5 9.3
2018-Jun-21 07:30N 39°33' E 002°38'1 2.3
2018-Jun-21 07:00N 39°34' E 002°38'0 0.5
2018-Jun-21 06:30N 39°34' E 002°38'0 0.0
2018-Jun-20 15:46N 39°34' E 002°38'1 4.7
2018-Jun-20 15:30N 39°33' E 002°38'5 9.8
2018-Jun-20 15:00N 39°31' E 002°32'2 4.3
2018-Jun-20 14:30N 39°29' E 002°32'2 3.8
2018-Jun-20 14:00N 39°30' E 002°33'1 2.6
2018-Jun-20 13:30N 39°32' E 002°33'2 3.1
2018-Jun-20 12:59N 39°30' E 002°32'2 4.3
2018-Jun-20 12:30N 39°28' E 002°31'3 5.6
2018-Jun-20 12:00N 39°31' E 002°33'1 1.6
2018-Jun-20 11:30N 39°32' E 002°33'1 3.0
2018-Jun-20 11:00N 39°30' E 002°32'2 3.7
2018-Jun-20 10:30N 39°29' E 002°32'3 4.9
2018-Jun-20 10:00N 39°31' E 002°33'1 1.7
2018-Jun-20 09:30N 39°32' E 002°34'2 3.2
2018-Jun-20 09:00N 39°30' E 002°32'0 0.3
2018-Jun-20 08:30N 39°30' E 002°32'0 0.0
2018-Jun-20 08:00N 39°30' E 002°32'4 7.7
2018-Jun-20 07:30N 39°32' E 002°37'2 4.2
2018-Jun-20 07:00N 39°34' E 002°38'0 0.0
2018-Jun-19 16:07N 39°34' E 002°38'0 0.0
2018-Jun-19 16:00N 39°34' E 002°38'3 6.1
2018-Jun-19 15:30N 39°32' E 002°35'2 4.6
2018-Jun-19 15:00N 39°31' E 002°33'3 5.5
2018-Jun-19 14:30N 39°28' E 002°32'3 5.2
2018-Jun-19 14:00N 39°31' E 002°33'1 2.4
2018-Jun-19 13:30N 39°32' E 002°34'2 3.2
2018-Jun-19 13:00N 39°30' E 002°32'2 3.9
2018-Jun-19 12:28N 39°28' E 002°32'3 6.5
2018-Jun-19 12:00N 39°31' E 002°33'1 1.7
2018-Jun-19 11:29N 39°32' E 002°34'2 3.6
2018-Jun-19 11:00N 39°30' E 002°32'2 4.0
2018-Jun-19 10:30N 39°28' E 002°32'3 6.4
2018-Jun-19 10:00N 39°31' E 002°33'0 0.7
2018-Jun-19 09:30N 39°32' E 002°34'2 3.2
2018-Jun-19 09:00N 39°30' E 002°32'1 1.1
2018-Jun-19 08:30N 39°30' E 002°33'4 7.4
2018-Jun-19 08:00N 39°32' E 002°37'2 4.7
2018-Jun-19 07:30N 39°34' E 002°38'0 0.0
2018-Jun-18 15:54N 39°34' E 002°38'2 4.6
2018-Jun-18 15:30N 39°32' E 002°37'4 7.7
2018-Jun-18 15:01N 39°31' E 002°32'3 4.8
2018-Jun-18 14:29N 39°28' E 002°31'4 7.5
2018-Jun-18 14:00N 39°32' E 002°33'0 0.5
2018-Jun-18 13:30N 39°31' E 002°33'1 2.5
2018-Jun-18 12:59N 39°30' E 002°32'3 5.8
2018-Jun-18 12:30N 39°28' E 002°32'3 6.8
2018-Jun-18 12:00N 39°31' E 002°33'1 2.0
2018-Jun-18 11:30N 39°32' E 002°34'2 3.5
2018-Jun-18 11:00N 39°30' E 002°32'3 5.2
2018-Jun-18 10:30N 39°28' E 002°32'3 6.1
2018-Jun-18 10:00N 39°31' E 002°33'1 2.1
2018-Jun-18 09:30N 39°32' E 002°34'2 3.3
2018-Jun-18 09:00N 39°30' E 002°32'1 1.4
2018-Jun-18 08:30N 39°30' E 002°32'510.4
2018-Jun-18 08:00N 39°33' E 002°38'1 0.1
2018-Jun-17 16:11N 39°34' E 002°38'0 1.6
2018-Jun-17 16:00N 39°34' E 002°38'4 7.7
2018-Jun-17 15:29N 39°31' E 002°34'2 3.1
2018-Jun-17 15:00N 39°30' E 002°32'2 3.0
2018-Jun-17 14:28N 39°29' E 002°32'3 5.4
2018-Jun-17 13:53N 39°32' E 002°33'0 0.5
2018-Jun-17 13:30N 39°31' E 002°33'1 2.7
2018-Jun-17 13:00N 39°30' E 002°32'2 4.3
2018-Jun-17 12:30N 39°28' E 002°31'3 5.2
2018-Jun-17 12:00N 39°31' E 002°33'1 2.0
2018-Jun-17 11:30N 39°32' E 002°33'2 2.9
2018-Jun-17 10:59N 39°30' E 002°32'3 6.5
2018-Jun-17 10:31N 39°32' E 002°36'3 5.3
2018-Jun-17 10:00N 39°34' E 002°38'0 0.0
2018-Jun-17 09:30N 39°34' E 002°38'4 8.4
2018-Jun-17 09:00N 39°30' E 002°40'510.6
2018-Jun-17 08:30N 39°25' E 002°43'510.7
2018-Jun-17 08:00N 39°21' E 002°46'5 9.2
2018-Jun-17 07:30N 39°18' E 002°51'12 9.9
2018-Jun-17 06:16N 39°13' E 003°05'  
2018-Jun-12 19:41N 39°22' E 002°47'210.3
2018-Jun-12 19:30N 39°23' E 002°45'7 9.8
2018-Jun-12 18:48N 39°29' E 002°41'3 9.8
2018-Jun-12 18:29N 39°32' E 002°39'2 0.8
2018-Jun-12 16:06N 39°34' E 002°38'  

Dump ship's entire track history